createdAt,value
2023-02-04T00:01:58.327Z,2.42
2023-02-04T00:05:59.787Z,2.17
2023-02-04T00:10:01.661Z,2.09
2023-02-04T00:14:03.087Z,1.99
2023-02-04T00:18:05.868Z,1.99
2023-02-04T00:22:07.841Z,1.87
2023-02-04T00:26:09.297Z,1.82
2023-02-04T00:30:12.148Z,1.70
2023-02-04T00:34:14.966Z,1.49
2023-02-04T00:38:16.541Z,1.43
2023-02-04T00:42:18.009Z,1.24
2023-02-04T00:46:19.420Z,1.32
2023-02-04T00:50:22.222Z,1.25
2023-02-04T00:54:23.667Z,1.14
2023-02-04T00:58:25.072Z,1.07
2023-02-04T01:02:26.542Z,1.18
2023-02-04T01:06:29.457Z,1.23
2023-02-04T01:10:31.260Z,1.21
2023-02-04T01:14:33.193Z,1.20
2023-02-04T01:18:34.678Z,1.18
2023-02-04T01:22:37.442Z,1.21
2023-02-04T01:26:38.872Z,1.26
2023-02-04T01:30:40.353Z,1.19
2023-02-04T01:34:41.892Z,1.13
2023-02-04T01:38:44.638Z,1.09
2023-02-04T01:42:46.883Z,1.08
2023-02-04T01:46:48.362Z,1.00
2023-02-04T01:50:51.934Z,0.91
2023-02-04T01:54:54.734Z,0.94
2023-02-04T01:58:57.961Z,0.91
2023-02-04T02:03:00.092Z,1.02
2023-02-04T02:07:05.222Z,0.94
2023-02-04T02:11:08.012Z,0.96
2023-02-04T02:15:10.062Z,0.97
2023-02-04T02:19:17.883Z,0.95
2023-02-04T02:23:23.729Z,1.02
2023-02-04T02:27:26.577Z,0.99
2023-02-04T02:31:28.119Z,0.99
2023-02-04T02:35:29.744Z,0.85
2023-02-04T02:39:31.490Z,0.81
2023-02-04T02:43:35.386Z,0.85
2023-02-04T02:47:36.913Z,0.70
2023-02-04T02:51:38.404Z,0.71
2023-02-04T02:55:40.289Z,0.57
2023-02-04T02:59:43.576Z,0.53
2023-02-04T03:03:49.758Z,0.52
2023-02-04T03:07:51.432Z,0.51
2023-02-04T03:11:53.351Z,0.45
2023-02-04T03:15:56.837Z,0.51
2023-02-04T03:19:58.659Z,0.52
2023-02-04T03:24:00.181Z,0.52
2023-02-04T03:28:01.654Z,0.54
2023-02-04T03:32:04.643Z,0.48
2023-02-04T03:36:07.088Z,0.41
2023-02-04T03:40:09.846Z,0.25
2023-02-04T03:44:11.274Z,0.18
2023-02-04T03:48:14.029Z,0.04
2023-02-04T03:52:15.712Z,-0.11
2023-02-04T03:56:17.141Z,-0.22
2023-02-04T04:00:19.212Z,-0.30
2023-02-04T04:04:22.043Z,-0.37
2023-02-04T04:08:23.451Z,-0.44
2023-02-04T04:12:24.935Z,-0.40
2023-02-04T04:16:26.357Z,-0.34
2023-02-04T04:20:29.189Z,-0.28
2023-02-04T04:24:30.670Z,-0.22
2023-02-04T04:28:32.175Z,-0.14
2023-02-04T04:32:33.601Z,-0.05
2023-02-04T04:36:36.649Z,0.02
2023-02-04T04:40:38.078Z,-0.03
2023-02-04T04:44:39.518Z,-0.09
2023-02-04T04:48:41.009Z,-0.06
2023-02-04T04:52:43.756Z,-0.12
2023-02-04T04:56:45.156Z,-0.29
2023-02-04T05:00:46.783Z,-0.30
2023-02-04T05:04:48.303Z,-0.34
2023-02-04T05:08:51.174Z,-0.39
2023-02-04T05:12:52.632Z,-0.50
2023-02-04T05:16:54.088Z,-0.59
2023-02-04T05:20:55.481Z,-0.78
2023-02-04T05:24:58.273Z,-0.83
2023-02-04T05:28:59.737Z,-0.98
2023-02-04T05:33:01.162Z,-1.07
2023-02-04T05:37:02.580Z,-0.99
2023-02-04T05:41:05.635Z,-0.87
2023-02-04T05:45:07.942Z,-0.87
2023-02-04T05:49:09.398Z,-0.85
2023-02-04T05:53:10.866Z,-0.83
2023-02-04T05:57:13.682Z,-0.90
2023-02-04T06:01:15.083Z,-0.87
2023-02-04T06:05:16.667Z,-0.93
2023-02-04T06:09:18.164Z,-0.98
2023-02-04T06:13:20.930Z,-1.03
2023-02-04T06:17:22.389Z,-1.21
2023-02-04T06:21:23.945Z,-1.23
2023-02-04T06:25:25.554Z,-1.35
2023-02-04T06:29:28.372Z,-1.32
2023-02-04T06:33:29.956Z,-1.35
2023-02-04T06:37:31.445Z,-1.46
2023-02-04T06:41:32.936Z,-1.51
2023-02-04T06:45:35.800Z,-1.49
2023-02-04T06:49:37.625Z,-1.59
2023-02-04T06:53:39.029Z,-1.60
2023-02-04T06:57:40.885Z,-1.59
2023-02-04T07:01:43.790Z,-1.66
2023-02-04T07:05:45.488Z,-1.62
2023-02-04T07:09:46.966Z,-1.53
2023-02-04T07:13:48.582Z,-1.53
2023-02-04T07:17:51.452Z,-1.51
2023-02-04T07:21:52.998Z,-1.45
2023-02-04T07:25:54.562Z,-1.38
2023-02-04T07:29:56.004Z,-1.33
2023-02-04T07:33:58.740Z,-1.26
2023-02-04T07:38:00.129Z,-1.30
2023-02-04T07:42:01.539Z,-1.20
2023-02-04T07:46:03.022Z,-1.21
2023-02-04T07:50:06.393Z,-1.14
2023-02-04T07:54:07.844Z,-1.14
2023-02-04T07:58:09.235Z,-1.16
2023-02-04T08:02:10.720Z,-1.09
2023-02-04T08:06:13.526Z,-1.10
2023-02-04T08:10:15.096Z,-0.91
2023-02-04T08:14:16.508Z,-1.01
2023-02-04T08:18:17.944Z,-1.04
2023-02-04T08:22:20.881Z,-0.98
2023-02-04T08:26:22.353Z,-0.85
2023-02-04T08:30:23.837Z,-0.82
2023-02-04T08:34:25.327Z,-0.64
2023-02-04T08:38:28.045Z,-0.35
2023-02-04T08:42:29.584Z,-0.19
2023-02-04T08:46:31.077Z,0.06
2023-02-04T08:50:32.753Z,0.23
2023-02-04T08:54:35.959Z,0.17
2023-02-04T08:58:37.366Z,0.24
2023-02-04T09:02:38.805Z,0.19
2023-02-04T09:06:40.281Z,0.19
2023-02-04T09:10:43.095Z,0.28
2023-02-04T09:14:44.619Z,0.25
2023-02-04T09:18:46.037Z,0.20
2023-02-04T09:22:47.539Z,0.41
2023-02-04T09:26:50.568Z,0.59
2023-02-04T09:30:52.108Z,0.75
2023-02-04T09:34:53.580Z,0.95
2023-02-04T09:38:55.491Z,1.19
2023-02-04T09:42:59.357Z,1.25
2023-02-04T09:47:01.157Z,1.02
2023-02-04T09:51:06.043Z,0.94
2023-02-04T09:55:12.983Z,0.94
2023-02-04T09:59:18.214Z,1.05
2023-02-04T10:03:20.361Z,1.00
2023-02-04T10:07:22.455Z,1.02
2023-02-04T10:11:26.356Z,1.01
2023-02-04T10:15:29.373Z,1.14
2023-02-04T10:19:31.303Z,1.21
2023-02-04T10:23:32.722Z,1.38
2023-02-04T10:27:34.128Z,1.49
2023-02-04T10:31:38.785Z,1.24
2023-02-04T10:35:46.312Z,1.35
2023-02-04T10:39:48.519Z,1.27
2023-02-04T10:43:55.575Z,1.18
2023-02-04T10:47:58.398Z,1.33
2023-02-04T10:52:02.370Z,1.27
2023-02-04T10:56:04.761Z,1.37
2023-02-04T11:00:14.288Z,1.36
2023-02-04T11:04:17.064Z,1.16
2023-02-04T11:08:22.311Z,1.65
2023-02-04T11:12:37.336Z,1.72
2023-02-04T11:16:47.774Z,2.15
2023-02-04T11:20:52.827Z,2.18
2023-02-04T11:24:54.324Z,1.86
2023-02-04T11:29:09.168Z,1.51
2023-02-04T11:33:23.205Z,1.34
2023-02-04T11:37:37.274Z,1.36
2023-02-04T11:41:38.919Z,1.25
2023-02-04T11:45:41.433Z,1.29
2023-02-04T11:49:43.786Z,1.22
2023-02-04T11:53:51.298Z,1.32
2023-02-04T11:57:54.437Z,1.62
2023-02-04T12:02:04.781Z,2.26
2023-02-04T12:06:06.661Z,2.23
2023-02-04T12:10:14.442Z,2.17
2023-02-04T12:14:18.324Z,1.98
2023-02-04T12:18:19.869Z,1.73
2023-02-04T12:22:21.534Z,1.59
2023-02-04T12:26:24.482Z,1.59
2023-02-04T12:30:27.736Z,1.37
2023-02-04T12:34:29.201Z,1.43
2023-02-04T12:38:30.798Z,1.84
2023-02-04T12:42:33.810Z,2.05
2023-02-04T12:46:35.375Z,2.32
2023-02-04T12:50:36.944Z,2.49
2023-02-04T12:54:38.433Z,2.36
2023-02-04T12:58:41.670Z,2.53
2023-02-04T13:02:43.339Z,2.48
2023-02-04T13:06:44.933Z,2.06
2023-02-04T13:10:46.543Z,1.92
2023-02-04T13:14:49.420Z,2.33
2023-02-04T13:18:51.109Z,2.58
2023-02-04T13:22:52.704Z,2.72
2023-02-04T13:26:54.454Z,3.21
2023-02-04T13:30:57.329Z,4.24
2023-02-04T13:34:59.012Z,5.15
2023-02-04T13:39:00.608Z,5.63
2023-02-04T13:43:02.180Z,4.33
2023-02-04T13:47:05.349Z,4.07
2023-02-04T13:51:06.922Z,4.75
2023-02-04T13:55:08.874Z,3.86
2023-02-04T13:59:10.543Z,3.73
2023-02-04T14:03:13.562Z,3.15
2023-02-04T14:07:15.280Z,2.93
2023-02-04T14:11:16.925Z,2.51
2023-02-04T14:15:18.593Z,2.32
2023-02-04T14:19:21.682Z,2.34
2023-02-04T14:23:23.285Z,2.37
2023-02-04T14:27:24.857Z,2.31
2023-02-04T14:31:26.291Z,2.26
2023-02-04T14:35:29.281Z,2.46
2023-02-04T14:39:30.778Z,2.43
2023-02-04T14:43:32.391Z,2.48
2023-02-04T14:47:34.167Z,2.46
2023-02-04T14:51:36.972Z,2.45
2023-02-04T14:55:38.495Z,2.48
2023-02-04T14:59:39.930Z,2.36
2023-02-04T15:03:41.430Z,2.24
2023-02-04T15:07:44.259Z,2.18
2023-02-04T15:11:45.699Z,2.11
2023-02-04T15:15:47.168Z,2.10
2023-02-04T15:19:48.935Z,2.02
2023-02-04T15:23:51.676Z,1.99
2023-02-04T15:27:53.182Z,1.84
2023-02-04T15:31:54.634Z,1.74
2023-02-04T15:35:56.254Z,1.52
2023-02-04T15:39:59.123Z,1.36
2023-02-04T15:44:00.592Z,1.23
2023-02-04T15:48:02.006Z,1.05
2023-02-04T15:52:04.787Z,0.89
2023-02-04T15:56:09.916Z,0.81
2023-02-04T16:00:12.477Z,0.59
2023-02-04T16:04:13.976Z,0.49
2023-02-04T16:08:15.475Z,0.51
2023-02-04T16:12:18.227Z,0.40
2023-02-04T16:16:19.717Z,0.35
2023-02-04T16:20:21.398Z,0.28
2023-02-04T16:24:22.886Z,0.18
2023-02-04T16:28:25.729Z,0.14
2023-02-04T16:32:27.324Z,0.12
2023-02-04T16:36:28.788Z,0.05
2023-02-04T16:40:30.329Z,-0.11
2023-02-04T16:44:33.237Z,-0.19
2023-02-04T16:48:34.688Z,-0.20
2023-02-04T16:52:36.089Z,-0.25
2023-02-04T16:56:37.555Z,-0.23
2023-02-04T17:00:41.259Z,-0.28
2023-02-04T17:04:42.719Z,-0.37
2023-02-04T17:08:44.132Z,-0.40
2023-02-04T17:12:45.535Z,-0.48
2023-02-04T17:16:49.203Z,-0.67
2023-02-04T17:20:50.618Z,-0.65
2023-02-04T17:24:52.157Z,-0.54
2023-02-04T17:28:53.604Z,-0.60
2023-02-04T17:32:56.382Z,-0.71
2023-02-04T17:36:57.812Z,-0.69
2023-02-04T17:40:59.334Z,-0.70
2023-02-04T17:45:00.767Z,-0.67
2023-02-04T17:49:03.560Z,-0.76
2023-02-04T17:53:05.057Z,-0.78
2023-02-04T17:57:16.738Z,-0.93
2023-02-04T18:01:19.498Z,-0.98
2023-02-04T18:05:24.934Z,-1.03
2023-02-04T18:09:27.010Z,-1.17
2023-02-04T18:13:31.782Z,-1.00
2023-02-04T18:17:33.257Z,-1.15
2023-02-04T18:21:36.891Z,-1.12
2023-02-04T18:25:38.416Z,-1.05
2023-02-04T18:29:42.827Z,-1.02
2023-02-04T18:33:44.308Z,-1.02
2023-02-04T18:37:49.349Z,-0.95
2023-02-04T18:41:52.180Z,-0.96
2023-02-04T18:45:54.321Z,-1.05
2023-02-04T18:49:55.818Z,-1.03
2023-02-04T18:54:01.816Z,-1.07
2023-02-04T18:58:27.055Z,-1.03
2023-02-04T19:02:35.846Z,-1.16
2023-02-04T19:06:39.284Z,-1.20
2023-02-04T19:10:42.328Z,-1.31
2023-02-04T19:14:44.884Z,-1.25
2023-02-04T19:18:47.153Z,-1.30
2023-02-04T19:22:52.058Z,-1.34
2023-02-04T19:26:58.301Z,-1.31
2023-02-04T19:31:01.725Z,-1.27
2023-02-04T19:35:17.850Z,-1.20
2023-02-04T19:39:29.569Z,-1.16
2023-02-04T19:43:36.867Z,-1.16
2023-02-04T19:47:42.324Z,-1.18
2023-02-04T19:51:48.370Z,-1.04
2023-02-04T19:55:51.065Z,-1.12
2023-02-04T19:59:55.996Z,-1.13
2023-02-04T20:03:58.433Z,-1.19
2023-02-04T20:08:23.127Z,-1.31
2023-02-04T20:12:24.870Z,-1.44
2023-02-04T20:16:38.724Z,-1.64
2023-02-04T20:20:43.064Z,-1.71
2023-02-04T20:24:47.939Z,-1.80
2023-02-04T20:28:50.165Z,-1.89
2023-02-04T20:32:54.951Z,-1.93
2023-02-04T20:36:56.357Z,-2.02
2023-02-04T20:40:57.936Z,-2.01
2023-02-04T20:45:12.211Z,-2.08
2023-02-04T20:49:25.065Z,-2.04
2023-02-04T20:53:28.392Z,-2.09
2023-02-04T20:57:32.090Z,-2.13
2023-02-04T21:01:35.472Z,-2.23
2023-02-04T21:05:39.334Z,-2.18
2023-02-04T21:09:40.961Z,-2.26
2023-02-04T21:13:42.492Z,-2.27
2023-02-04T21:17:43.974Z,-2.30
2023-02-04T21:21:46.878Z,-2.51
2023-02-04T21:25:48.499Z,-2.61
2023-02-04T21:29:49.888Z,-2.70
2023-02-04T21:33:51.650Z,-2.86
2023-02-04T21:37:55.690Z,-2.96
2023-02-04T21:41:57.088Z,-3.04
2023-02-04T21:45:58.572Z,-3.20
2023-02-04T21:49:59.998Z,-3.41
2023-02-04T21:54:02.866Z,-3.38
2023-02-04T21:58:05.004Z,-3.28
2023-02-04T22:02:06.426Z,-3.30
2023-02-04T22:06:08.218Z,-3.27
2023-02-04T22:10:13.676Z,-3.32
2023-02-04T22:14:15.105Z,-3.31
2023-02-04T22:18:16.530Z,-3.40
2023-02-04T22:22:17.982Z,-3.40
2023-02-04T22:26:20.765Z,-3.49
2023-02-04T22:30:22.227Z,-3.55
2023-02-04T22:34:23.647Z,-3.52
2023-02-04T22:38:25.097Z,-3.40
2023-02-04T22:42:27.879Z,-3.45
2023-02-04T22:46:29.378Z,-3.54
2023-02-04T22:50:30.977Z,-3.55
2023-02-04T22:54:33.096Z,-3.52
2023-02-04T22:58:35.893Z,-3.54
2023-02-04T23:02:37.325Z,-3.57
2023-02-04T23:06:38.751Z,-3.64
2023-02-04T23:10:40.405Z,-3.69
2023-02-04T23:14:45.721Z,-3.76
2023-02-04T23:18:47.201Z,-3.84
2023-02-04T23:22:48.674Z,-3.95
2023-02-04T23:26:50.174Z,-4.01
2023-02-04T23:30:52.944Z,-4.08
2023-02-04T23:34:54.839Z,-4.16
2023-02-04T23:38:56.303Z,-4.31
2023-02-04T23:42:57.726Z,-4.35
2023-02-04T23:47:00.482Z,-4.47
2023-02-04T23:51:01.976Z,-4.59
2023-02-04T23:55:04.065Z,-4.74
2023-02-04T23:59:05.630Z,-4.76
